sensor_id;sensor_type;location;lat;lon;timestamp;temperature;humidity
16404;DHT22;8311;50.158;8.642;2023-01-19T00:02:37;17.90;42.50
16404;DHT22;8311;50.158;8.642;2023-01-19T00:05:30;17.80;41.80
16404;DHT22;8311;50.158;8.642;2023-01-19T00:08:24;17.80;41.30
16404;DHT22;8311;50.158;8.642;2023-01-19T00:11:19;17.80;40.70
16404;DHT22;8311;50.158;8.642;2023-01-19T00:14:13;17.80;40.20
16404;DHT22;8311;50.158;8.642;2023-01-19T00:17:06;17.70;39.80
16404;DHT22;8311;50.158;8.642;2023-01-19T00:20:02;17.70;39.40
16404;DHT22;8311;50.158;8.642;2023-01-19T00:22:56;17.70;39.10
16404;DHT22;8311;50.158;8.642;2023-01-19T00:25:50;17.60;38.70
16404;DHT22;8311;50.158;8.642;2023-01-19T00:28:44;17.60;38.30
16404;DHT22;8311;50.158;8.642;2023-01-19T00:31:38;17.70;38.10
16404;DHT22;8311;50.158;8.642;2023-01-19T00:34:32;17.60;37.90
16404;DHT22;8311;50.158;8.642;2023-01-19T00:37:30;17.60;37.60
16404;DHT22;8311;50.158;8.642;2023-01-19T00:40:23;17.60;37.40
16404;DHT22;8311;50.158;8.642;2023-01-19T00:43:17;17.50;37.20
16404;DHT22;8311;50.158;8.642;2023-01-19T00:46:12;17.50;36.90
16404;DHT22;8311;50.158;8.642;2023-01-19T00:49:06;17.50;36.70
16404;DHT22;8311;50.158;8.642;2023-01-19T00:51:59;17.50;36.60
16404;DHT22;8311;50.158;8.642;2023-01-19T00:54:52;17.50;36.50
16404;DHT22;8311;50.158;8.642;2023-01-19T00:57:45;17.40;36.30
16404;DHT22;8311;50.158;8.642;2023-01-19T01:00:38;17.50;36.30
16404;DHT22;8311;50.158;8.642;2023-01-19T01:03:33;17.40;36.10
16404;DHT22;8311;50.158;8.642;2023-01-19T01:06:26;17.40;36.00
16404;DHT22;8311;50.158;8.642;2023-01-19T01:09:19;17.40;35.90
16404;DHT22;8311;50.158;8.642;2023-01-19T01:12:12;17.40;35.50
16404;DHT22;8311;50.158;8.642;2023-01-19T01:15:07;17.40;35.20
16404;DHT22;8311;50.158;8.642;2023-01-19T01:18:01;17.30;35.30
16404;DHT22;8311;50.158;8.642;2023-01-19T01:21:01;17.30;35.40
16404;DHT22;8311;50.158;8.642;2023-01-19T01:23:54;17.30;35.20
16404;DHT22;8311;50.158;8.642;2023-01-19T01:26:47;17.30;35.20
16404;DHT22;8311;50.158;8.642;2023-01-19T01:29:40;17.30;35.10
16404;DHT22;8311;50.158;8.642;2023-01-19T01:32:37;17.30;35.10
16404;DHT22;8311;50.158;8.642;2023-01-19T01:35:30;17.30;35.10
16404;DHT22;8311;50.158;8.642;2023-01-19T01:38:25;17.30;34.90
16404;DHT22;8311;50.158;8.642;2023-01-19T01:41:18;17.30;34.80
16404;DHT22;8311;50.158;8.642;2023-01-19T01:44:42;17.30;34.90
16404;DHT22;8311;50.158;8.642;2023-01-19T01:47:42;17.30;34.60
16404;DHT22;8311;50.158;8.642;2023-01-19T01:50:40;17.20;34.60
16404;DHT22;8311;50.158;8.642;2023-01-19T01:54:07;17.20;34.60
16404;DHT22;8311;50.158;8.642;2023-01-19T01:57:05;17.20;34.60
16404;DHT22;8311;50.158;8.642;2023-01-19T02:00:04;17.20;34.50
16404;DHT22;8311;50.158;8.642;2023-01-19T02:02:58;17.20;34.50
16404;DHT22;8311;50.158;8.642;2023-01-19T02:05:52;17.20;34.40
16404;DHT22;8311;50.158;8.642;2023-01-19T02:08:52;17.20;34.50
16404;DHT22;8311;50.158;8.642;2023-01-19T02:12:05;17.10;34.40
16404;DHT22;8311;50.158;8.642;2023-01-19T02:15:17;17.20;34.40
16404;DHT22;8311;50.158;8.642;2023-01-19T02:18:11;17.10;34.40
16404;DHT22;8311;50.158;8.642;2023-01-19T02:21:09;17.10;34.30
16404;DHT22;8311;50.158;8.642;2023-01-19T02:24:05;17.10;34.40
16404;DHT22;8311;50.158;8.642;2023-01-19T02:26:59;17.10;34.50
16404;DHT22;8311;50.158;8.642;2023-01-19T02:29:52;17.10;34.50
16404;DHT22;8311;50.158;8.642;2023-01-19T02:32:45;17.10;34.50
16404;DHT22;8311;50.158;8.642;2023-01-19T02:35:39;17.10;34.50
16404;DHT22;8311;50.158;8.642;2023-01-19T02:38:32;17.10;34.50
16404;DHT22;8311;50.158;8.642;2023-01-19T02:41:31;17.00;34.20
16404;DHT22;8311;50.158;8.642;2023-01-19T02:44:26;17.00;34.30
16404;DHT22;8311;50.158;8.642;2023-01-19T02:47:21;17.00;34.20
16404;DHT22;8311;50.158;8.642;2023-01-19T02:50:36;17.00;34.30
16404;DHT22;8311;50.158;8.642;2023-01-19T02:54:03;17.00;34.20
16404;DHT22;8311;50.158;8.642;2023-01-19T02:57:11;17.00;34.20
16404;DHT22;8311;50.158;8.642;2023-01-19T03:00:21;17.00;34.20
16404;DHT22;8311;50.158;8.642;2023-01-19T03:03:22;17.00;34.10
16404;DHT22;8311;50.158;8.642;2023-01-19T03:06:24;17.00;34.10
16404;DHT22;8311;50.158;8.642;2023-01-19T03:09:27;17.00;34.10
16404;DHT22;8311;50.158;8.642;2023-01-19T03:12:25;16.90;34.00
16404;DHT22;8311;50.158;8.642;2023-01-19T03:15:25;16.90;33.90
16404;DHT22;8311;50.158;8.642;2023-01-19T03:18:24;16.90;33.70
16404;DHT22;8311;50.158;8.642;2023-01-19T03:21:20;16.90;33.80
16404;DHT22;8311;50.158;8.642;2023-01-19T03:24:16;16.90;33.90
16404;DHT22;8311;50.158;8.642;2023-01-19T03:27:13;16.90;33.90
16404;DHT22;8311;50.158;8.642;2023-01-19T03:30:15;16.90;34.00
16404;DHT22;8311;50.158;8.642;2023-01-19T03:33:13;16.90;34.00
16404;DHT22;8311;50.158;8.642;2023-01-19T03:36:11;16.90;34.00
16404;DHT22;8311;50.158;8.642;2023-01-19T03:39:06;16.90;34.00
16404;DHT22;8311;50.158;8.642;2023-01-19T03:42:03;16.90;33.90
16404;DHT22;8311;50.158;8.642;2023-01-19T03:44:59;16.80;33.80
16404;DHT22;8311;50.158;8.642;2023-01-19T03:47:55;16.80;33.70
16404;DHT22;8311;50.158;8.642;2023-01-19T03:50:48;16.80;33.80
16404;DHT22;8311;50.158;8.642;2023-01-19T03:53:42;16.80;33.80
16404;DHT22;8311;50.158;8.642;2023-01-19T03:56:35;16.80;33.60
16404;DHT22;8311;50.158;8.642;2023-01-19T03:59:29;16.80;33.70
16404;DHT22;8311;50.158;8.642;2023-01-19T04:02:22;16.80;33.80
16404;DHT22;8311;50.158;8.642;2023-01-19T04:05:17;16.80;33.80
16404;DHT22;8311;50.158;8.642;2023-01-19T04:08:11;16.80;33.80
16404;DHT22;8311;50.158;8.642;2023-01-19T04:11:04;16.80;33.80
16404;DHT22;8311;50.158;8.642;2023-01-19T04:13:59;16.80;33.70
16404;DHT22;8311;50.158;8.642;2023-01-19T04:16:52;16.70;33.60
16404;DHT22;8311;50.158;8.642;2023-01-19T04:19:45;16.80;33.70
16404;DHT22;8311;50.158;8.642;2023-01-19T04:22:40;16.70;33.70
16404;DHT22;8311;50.158;8.642;2023-01-19T04:25:33;16.70;33.70
16404;DHT22;8311;50.158;8.642;2023-01-19T04:28:29;16.70;33.60
16404;DHT22;8311;50.158;8.642;2023-01-19T04:31:22;16.70;33.70
16404;DHT22;8311;50.158;8.642;2023-01-19T04:34:15;16.70;33.70
16404;DHT22;8311;50.158;8.642;2023-01-19T04:37:08;16.70;33.70
16404;DHT22;8311;50.158;8.642;2023-01-19T04:40:04;16.70;33.80
16404;DHT22;8311;50.158;8.642;2023-01-19T04:42:57;16.70;33.80
16404;DHT22;8311;50.158;8.642;2023-01-19T04:45:51;16.70;33.80
16404;DHT22;8311;50.158;8.642;2023-01-19T04:48:44;16.70;33.80
16404;DHT22;8311;50.158;8.642;2023-01-19T04:51:38;16.70;33.90
16404;DHT22;8311;50.158;8.642;2023-01-19T04:54:31;16.60;33.70
16404;DHT22;8311;50.158;8.642;2023-01-19T04:57:26;16.70;33.90
16404;DHT22;8311;50.158;8.642;2023-01-19T05:00:19;16.60;33.80
16404;DHT22;8311;50.158;8.642;2023-01-19T05:03:13;16.60;33.70
16404;DHT22;8311;50.158;8.642;2023-01-19T05:06:06;16.60;33.80
16404;DHT22;8311;50.158;8.642;2023-01-19T05:08:59;16.60;33.70
16404;DHT22;8311;50.158;8.642;2023-01-19T05:11:52;16.60;33.90
16404;DHT22;8311;50.158;8.642;2023-01-19T05:14:49;16.60;33.80
16404;DHT22;8311;50.158;8.642;2023-01-19T05:17:42;16.60;33.70
16404;DHT22;8311;50.158;8.642;2023-01-19T05:20:35;16.60;33.80
16404;DHT22;8311;50.158;8.642;2023-01-19T05:23:28;16.60;33.90
16404;DHT22;8311;50.158;8.642;2023-01-19T05:26:23;16.60;33.90
16404;DHT22;8311;50.158;8.642;2023-01-19T05:29:16;16.60;33.90
16404;DHT22;8311;50.158;8.642;2023-01-19T05:32:10;16.60;33.80
16404;DHT22;8311;50.158;8.642;2023-01-19T05:35:05;16.60;34.00
16404;DHT22;8311;50.158;8.642;2023-01-19T05:37:58;16.60;34.00
16404;DHT22;8311;50.158;8.642;2023-01-19T05:40:55;16.60;34.00
16404;DHT22;8311;50.158;8.642;2023-01-19T05:43:49;16.60;34.10
16404;DHT22;8311;50.158;8.642;2023-01-19T05:46:42;16.60;34.10
16404;DHT22;8311;50.158;8.642;2023-01-19T05:49:36;16.50;34.10
16404;DHT22;8311;50.158;8.642;2023-01-19T05:52:30;16.50;34.20
16404;DHT22;8311;50.158;8.642;2023-01-19T05:55:24;16.50;34.10
16404;DHT22;8311;50.158;8.642;2023-01-19T05:58:17;16.50;34.20
16404;DHT22;8311;50.158;8.642;2023-01-19T06:01:10;16.50;34.30
16404;DHT22;8311;50.158;8.642;2023-01-19T06:04:05;16.50;34.30
16404;DHT22;8311;50.158;8.642;2023-01-19T06:06:59;16.50;34.30
16404;DHT22;8311;50.158;8.642;2023-01-19T06:09:53;16.50;34.30
16404;DHT22;8311;50.158;8.642;2023-01-19T06:12:46;16.50;34.40
16404;DHT22;8311;50.158;8.642;2023-01-19T06:15:40;16.50;34.50
16404;DHT22;8311;50.158;8.642;2023-01-19T06:18:34;16.50;34.40
16404;DHT22;8311;50.158;8.642;2023-01-19T06:21:28;16.50;34.40
16404;DHT22;8311;50.158;8.642;2023-01-19T06:24:23;16.50;34.50
16404;DHT22;8311;50.158;8.642;2023-01-19T06:27:16;16.50;34.50
16404;DHT22;8311;50.158;8.642;2023-01-19T06:30:11;16.50;34.90
16404;DHT22;8311;50.158;8.642;2023-01-19T06:33:05;16.50;36.00
16404;DHT22;8311;50.158;8.642;2023-01-19T06:35:58;16.50;36.50
16404;DHT22;8311;50.158;8.642;2023-01-19T06:38:51;16.60;37.50
16404;DHT22;8311;50.158;8.642;2023-01-19T06:41:45;16.60;37.00
16404;DHT22;8311;50.158;8.642;2023-01-19T06:44:39;16.70;37.20
16404;DHT22;8311;50.158;8.642;2023-01-19T06:47:38;16.70;37.40
16404;DHT22;8311;50.158;8.642;2023-01-19T06:50:31;16.80;37.50
16404;DHT22;8311;50.158;8.642;2023-01-19T06:53:24;16.80;37.70
16404;DHT22;8311;50.158;8.642;2023-01-19T06:56:18;16.90;37.80
16404;DHT22;8311;50.158;8.642;2023-01-19T06:59:14;17.00;38.00
16404;DHT22;8311;50.158;8.642;2023-01-19T07:02:08;17.00;38.10
16404;DHT22;8311;50.158;8.642;2023-01-19T07:05:18;17.10;38.20
16404;DHT22;8311;50.158;8.642;2023-01-19T07:08:12;17.20;38.40
16404;DHT22;8311;50.158;8.642;2023-01-19T07:11:09;17.20;38.40
16404;DHT22;8311;50.158;8.642;2023-01-19T07:14:23;17.30;38.60
16404;DHT22;8311;50.158;8.642;2023-01-19T07:17:21;17.40;38.70
16404;DHT22;8311;50.158;8.642;2023-01-19T07:20:14;17.40;38.70
16404;DHT22;8311;50.158;8.642;2023-01-19T07:23:10;17.50;38.80
16404;DHT22;8311;50.158;8.642;2023-01-19T07:26:03;17.60;38.90
16404;DHT22;8311;50.158;8.642;2023-01-19T07:28:56;17.60;39.00
16404;DHT22;8311;50.158;8.642;2023-01-19T07:31:50;17.70;39.00
16404;DHT22;8311;50.158;8.642;2023-01-19T07:34:45;17.80;39.10
16404;DHT22;8311;50.158;8.642;2023-01-19T07:37:38;17.80;39.20
16404;DHT22;8311;50.158;8.642;2023-01-19T07:40:31;17.90;39.20
16404;DHT22;8311;50.158;8.642;2023-01-19T07:43:25;17.90;39.30
16404;DHT22;8311;50.158;8.642;2023-01-19T07:46:18;18.00;39.50
16404;DHT22;8311;50.158;8.642;2023-01-19T07:49:12;18.00;39.50
16404;DHT22;8311;50.158;8.642;2023-01-19T07:52:05;18.10;39.70
16404;DHT22;8311;50.158;8.642;2023-01-19T07:54:58;18.10;40.30
16404;DHT22;8311;50.158;8.642;2023-01-19T07:57:53;18.20;39.80
16404;DHT22;8311;50.158;8.642;2023-01-19T08:00:45;18.20;39.80
16404;DHT22;8311;50.158;8.642;2023-01-19T08:03:38;18.30;40.00
16404;DHT22;8311;50.158;8.642;2023-01-19T08:06:35;18.30;40.10
16404;DHT22;8311;50.158;8.642;2023-01-19T08:09:28;18.40;40.30
16404;DHT22;8311;50.158;8.642;2023-01-19T08:12:21;18.40;40.40
16404;DHT22;8311;50.158;8.642;2023-01-19T08:15:16;18.40;40.50
16404;DHT22;8311;50.158;8.642;2023-01-19T08:18:09;18.50;40.60
16404;DHT22;8311;50.158;8.642;2023-01-19T08:21:03;18.60;40.70
16404;DHT22;8311;50.158;8.642;2023-01-19T08:23:58;18.60;40.80
16404;DHT22;8311;50.158;8.642;2023-01-19T08:26:57;18.70;40.80
16404;DHT22;8311;50.158;8.642;2023-01-19T08:29:50;18.70;40.80
16404;DHT22;8311;50.158;8.642;2023-01-19T08:32:44;18.80;41.00
16404;DHT22;8311;50.158;8.642;2023-01-19T08:35:39;18.90;41.10
16404;DHT22;8311;50.158;8.642;2023-01-19T08:38:32;19.00;41.30
16404;DHT22;8311;50.158;8.642;2023-01-19T08:41:26;19.00;41.30
16404;DHT22;8311;50.158;8.642;2023-01-19T08:44:19;19.20;41.50
16404;DHT22;8311;50.158;8.642;2023-01-19T08:47:13;19.20;41.60
16404;DHT22;8311;50.158;8.642;2023-01-19T08:50:10;19.30;41.60
16404;DHT22;8311;50.158;8.642;2023-01-19T08:53:03;19.40;41.70
16404;DHT22;8311;50.158;8.642;2023-01-19T08:55:58;19.40;41.90
16404;DHT22;8311;50.158;8.642;2023-01-19T08:58:53;19.50;42.20
16404;DHT22;8311;50.158;8.642;2023-01-19T09:01:59;19.50;42.50
16404;DHT22;8311;50.158;8.642;2023-01-19T09:04:53;19.60;42.40
16404;DHT22;8311;50.158;8.642;2023-01-19T09:07:46;19.40;40.40
16404;DHT22;8311;50.158;8.642;2023-01-19T09:10:44;18.80;36.00
16404;DHT22;8311;50.158;8.642;2023-01-19T09:13:37;18.80;36.40
16404;DHT22;8311;50.158;8.642;2023-01-19T09:16:33;18.30;33.90
16404;DHT22;8311;50.158;8.642;2023-01-19T09:19:26;17.90;35.50
16404;DHT22;8311;50.158;8.642;2023-01-19T09:22:19;18.10;35.10
16404;DHT22;8311;50.158;8.642;2023-01-19T09:25:12;18.30;36.10
16404;DHT22;8311;50.158;8.642;2023-01-19T09:28:07;18.40;36.70
16404;DHT22;8311;50.158;8.642;2023-01-19T09:31:03;18.50;37.60
16404;DHT22;8311;50.158;8.642;2023-01-19T09:34:01;18.60;38.80
16404;DHT22;8311;50.158;8.642;2023-01-19T09:36:54;18.70;38.50
16404;DHT22;8311;50.158;8.642;2023-01-19T09:39:47;18.80;38.60
16404;DHT22;8311;50.158;8.642;2023-01-19T09:42:41;18.80;38.70
16404;DHT22;8311;50.158;8.642;2023-01-19T09:45:40;18.90;38.90
16404;DHT22;8311;50.158;8.642;2023-01-19T09:48:45;19.00;39.10
16404;DHT22;8311;50.158;8.642;2023-01-19T09:51:44;19.00;39.40
16404;DHT22;8311;50.158;8.642;2023-01-19T09:54:42;19.10;39.90
16404;DHT22;8311;50.158;8.642;2023-01-19T09:57:38;19.20;39.40
16404;DHT22;8311;50.158;8.642;2023-01-19T10:00:31;19.20;39.50
16404;DHT22;8311;50.158;8.642;2023-01-19T10:03:25;19.20;39.60
16404;DHT22;8311;50.158;8.642;2023-01-19T10:06:17;19.30;39.80
16404;DHT22;8311;50.158;8.642;2023-01-19T10:09:17;19.30;39.80
16404;DHT22;8311;50.158;8.642;2023-01-19T10:12:20;19.30;39.90
16404;DHT22;8311;50.158;8.642;2023-01-19T10:15:27;19.30;40.00
16404;DHT22;8311;50.158;8.642;2023-01-19T10:18:23;19.40;40.20
16404;DHT22;8311;50.158;8.642;2023-01-19T10:21:25;19.40;40.40
16404;DHT22;8311;50.158;8.642;2023-01-19T10:24:26;19.50;40.40
16404;DHT22;8311;50.158;8.642;2023-01-19T10:27:22;19.50;40.40
16404;DHT22;8311;50.158;8.642;2023-01-19T10:30:19;19.50;40.50
16404;DHT22;8311;50.158;8.642;2023-01-19T10:33:14;19.50;40.50
16404;DHT22;8311;50.158;8.642;2023-01-19T10:36:16;19.50;40.60
16404;DHT22;8311;50.158;8.642;2023-01-19T10:39:14;19.60;40.50
16404;DHT22;8311;50.158;8.642;2023-01-19T10:42:11;19.60;40.40
16404;DHT22;8311;50.158;8.642;2023-01-19T10:45:14;19.60;40.30
16404;DHT22;8311;50.158;8.642;2023-01-19T10:48:10;19.70;40.40
16404;DHT22;8311;50.158;8.642;2023-01-19T10:51:05;19.70;40.40
16404;DHT22;8311;50.158;8.642;2023-01-19T10:54:02;19.70;40.60
16404;DHT22;8311;50.158;8.642;2023-01-19T10:56:57;19.70;40.60
16404;DHT22;8311;50.158;8.642;2023-01-19T10:59:52;19.70;40.70
16404;DHT22;8311;50.158;8.642;2023-01-19T11:02:49;19.80;40.80
16404;DHT22;8311;50.158;8.642;2023-01-19T11:05:42;19.80;41.00
16404;DHT22;8311;50.158;8.642;2023-01-19T11:08:35;19.90;40.90
16404;DHT22;8311;50.158;8.642;2023-01-19T11:11:41;19.90;40.90
16404;DHT22;8311;50.158;8.642;2023-01-19T11:14:34;19.90;40.90
16404;DHT22;8311;50.158;8.642;2023-01-19T11:17:29;19.90;41.00
16404;DHT22;8311;50.158;8.642;2023-01-19T11:20:24;19.90;41.00
16404;DHT22;8311;50.158;8.642;2023-01-19T11:23:21;19.90;41.00
16404;DHT22;8311;50.158;8.642;2023-01-19T11:26:25;20.00;41.10
16404;DHT22;8311;50.158;8.642;2023-01-19T11:29:22;20.00;41.10
16404;DHT22;8311;50.158;8.642;2023-01-19T11:32:20;20.00;41.20
16404;DHT22;8311;50.158;8.642;2023-01-19T11:35:34;20.10;41.40
16404;DHT22;8311;50.158;8.642;2023-01-19T11:38:28;20.10;41.30
16404;DHT22;8311;50.158;8.642;2023-01-19T11:41:25;20.10;41.30
16404;DHT22;8311;50.158;8.642;2023-01-19T11:44:21;20.10;41.40
16404;DHT22;8311;50.158;8.642;2023-01-19T11:47:19;20.10;41.70
16404;DHT22;8311;50.158;8.642;2023-01-19T11:50:22;20.20;41.80
16404;DHT22;8311;50.158;8.642;2023-01-19T11:53:20;20.20;41.90
16404;DHT22;8311;50.158;8.642;2023-01-19T11:56:16;20.20;41.80
16404;DHT22;8311;50.158;8.642;2023-01-19T11:59:12;20.20;41.70
16404;DHT22;8311;50.158;8.642;2023-01-19T12:02:17;20.20;41.70
16404;DHT22;8311;50.158;8.642;2023-01-19T12:05:14;20.20;42.40
16404;DHT22;8311;50.158;8.642;2023-01-19T12:08:13;20.30;41.80
16404;DHT22;8311;50.158;8.642;2023-01-19T12:11:11;20.30;41.80
16404;DHT22;8311;50.158;8.642;2023-01-19T12:14:14;20.30;41.80
16404;DHT22;8311;50.158;8.642;2023-01-19T12:17:14;20.20;41.80
16404;DHT22;8311;50.158;8.642;2023-01-19T12:20:19;20.30;41.90
16404;DHT22;8311;50.158;8.642;2023-01-19T12:23:24;20.30;41.90
16404;DHT22;8311;50.158;8.642;2023-01-19T12:26:28;20.30;41.90
16404;DHT22;8311;50.158;8.642;2023-01-19T12:29:25;20.30;41.90
16404;DHT22;8311;50.158;8.642;2023-01-19T12:32:32;20.30;41.90
16404;DHT22;8311;50.158;8.642;2023-01-19T12:35:54;20.30;41.90
16404;DHT22;8311;50.158;8.642;2023-01-19T12:38:49;20.30;41.90
16404;DHT22;8311;50.158;8.642;2023-01-19T12:41:45;20.30;42.00
16404;DHT22;8311;50.158;8.642;2023-01-19T12:44:40;20.40;42.00
16404;DHT22;8311;50.158;8.642;2023-01-19T12:47:35;20.40;42.00
16404;DHT22;8311;50.158;8.642;2023-01-19T12:50:32;20.40;42.00
16404;DHT22;8311;50.158;8.642;2023-01-19T12:53:27;20.40;42.10
16404;DHT22;8311;50.158;8.642;2023-01-19T12:56:26;20.40;42.10
16404;DHT22;8311;50.158;8.642;2023-01-19T12:59:24;20.50;42.20
16404;DHT22;8311;50.158;8.642;2023-01-19T13:02:49;20.50;42.20
16404;DHT22;8311;50.158;8.642;2023-01-19T13:05:51;20.50;42.20
16404;DHT22;8311;50.158;8.642;2023-01-19T13:08:58;20.50;42.20
16404;DHT22;8311;50.158;8.642;2023-01-19T13:12:22;20.50;42.30
16404;DHT22;8311;50.158;8.642;2023-01-19T13:15:28;20.50;42.30
16404;DHT22;8311;50.158;8.642;2023-01-19T13:18:28;20.60;42.50
16404;DHT22;8311;50.158;8.642;2023-01-19T13:21:27;20.60;42.40
16404;DHT22;8311;50.158;8.642;2023-01-19T13:24:22;20.60;42.40
16404;DHT22;8311;50.158;8.642;2023-01-19T13:27:15;20.60;42.50
16404;DHT22;8311;50.158;8.642;2023-01-19T13:30:10;20.60;42.50
16404;DHT22;8311;50.158;8.642;2023-01-19T13:33:12;20.60;42.50
16404;DHT22;8311;50.158;8.642;2023-01-19T13:36:21;20.60;42.50
16404;DHT22;8311;50.158;8.642;2023-01-19T13:39:16;20.60;42.50
16404;DHT22;8311;50.158;8.642;2023-01-19T13:42:14;20.60;42.50
16404;DHT22;8311;50.158;8.642;2023-01-19T13:45:16;20.70;42.60
16404;DHT22;8311;50.158;8.642;2023-01-19T13:48:18;20.70;42.80
16404;DHT22;8311;50.158;8.642;2023-01-19T13:51:20;20.70;42.80
16404;DHT22;8311;50.158;8.642;2023-01-19T13:54:15;20.70;42.80
16404;DHT22;8311;50.158;8.642;2023-01-19T13:57:21;20.70;42.80
16404;DHT22;8311;50.158;8.642;2023-01-19T14:00:17;20.70;42.80
16404;DHT22;8311;50.158;8.642;2023-01-19T14:03:17;20.80;42.90
16404;DHT22;8311;50.158;8.642;2023-01-19T14:06:21;20.70;42.80
16404;DHT22;8311;50.158;8.642;2023-01-19T14:09:16;20.70;42.80
16404;DHT22;8311;50.158;8.642;2023-01-19T14:12:11;20.70;42.90
16404;DHT22;8311;50.158;8.642;2023-01-19T14:15:07;20.70;42.90
16404;DHT22;8311;50.158;8.642;2023-01-19T14:18:27;20.70;42.90
16404;DHT22;8311;50.158;8.642;2023-01-19T14:21:21;20.80;43.00
16404;DHT22;8311;50.158;8.642;2023-01-19T14:24:17;20.80;43.00
16404;DHT22;8311;50.158;8.642;2023-01-19T14:27:19;20.80;43.00
16404;DHT22;8311;50.158;8.642;2023-01-19T14:30:19;20.80;43.10
16404;DHT22;8311;50.158;8.642;2023-01-19T14:33:39;20.80;43.10
16404;DHT22;8311;50.158;8.642;2023-01-19T14:36:34;20.80;43.10
16404;DHT22;8311;50.158;8.642;2023-01-19T14:39:31;20.80;43.10
16404;DHT22;8311;50.158;8.642;2023-01-19T14:42:27;20.90;43.20
16404;DHT22;8311;50.158;8.642;2023-01-19T14:45:26;20.90;43.20
16404;DHT22;8311;50.158;8.642;2023-01-19T14:48:20;20.90;43.30
16404;DHT22;8311;50.158;8.642;2023-01-19T14:51:18;20.90;43.40
16404;DHT22;8311;50.158;8.642;2023-01-19T14:54:16;20.90;44.30
16404;DHT22;8311;50.158;8.642;2023-01-19T14:57:12;20.90;43.50
16404;DHT22;8311;50.158;8.642;2023-01-19T15:00:11;21.00;43.40
16404;DHT22;8311;50.158;8.642;2023-01-19T15:03:08;21.00;43.40
16404;DHT22;8311;50.158;8.642;2023-01-19T15:06:02;21.00;43.40
16404;DHT22;8311;50.158;8.642;2023-01-19T15:08:56;21.00;43.50
16404;DHT22;8311;50.158;8.642;2023-01-19T15:11:50;21.00;43.50
16404;DHT22;8311;50.158;8.642;2023-01-19T15:14:44;21.00;43.50
16404;DHT22;8311;50.158;8.642;2023-01-19T15:17:38;21.00;43.50
16404;DHT22;8311;50.158;8.642;2023-01-19T15:20:32;21.00;43.60
16404;DHT22;8311;50.158;8.642;2023-01-19T15:23:25;21.00;43.50
16404;DHT22;8311;50.158;8.642;2023-01-19T15:26:20;21.00;43.70
16404;DHT22;8311;50.158;8.642;2023-01-19T15:29:19;21.00;43.70
16404;DHT22;8311;50.158;8.642;2023-01-19T15:32:14;21.00;43.60
16404;DHT22;8311;50.158;8.642;2023-01-19T15:35:12;21.00;43.50
16404;DHT22;8311;50.158;8.642;2023-01-19T15:38:04;21.00;43.50
16404;DHT22;8311;50.158;8.642;2023-01-19T15:40:58;20.90;43.40
16404;DHT22;8311;50.158;8.642;2023-01-19T15:43:52;20.90;43.40
16404;DHT22;8311;50.158;8.642;2023-01-19T15:46:45;20.80;43.30
16404;DHT22;8311;50.158;8.642;2023-01-19T15:49:38;20.80;43.30
16404;DHT22;8311;50.158;8.642;2023-01-19T15:52:32;20.80;43.30
16404;DHT22;8311;50.158;8.642;2023-01-19T15:55:25;20.70;43.30
16404;DHT22;8311;50.158;8.642;2023-01-19T15:58:18;20.60;43.90
16404;DHT22;8311;50.158;8.642;2023-01-19T16:01:17;20.60;43.30
16404;DHT22;8311;50.158;8.642;2023-01-19T16:04:26;20.50;43.30
16404;DHT22;8311;50.158;8.642;2023-01-19T16:07:20;20.50;43.40
16404;DHT22;8311;50.158;8.642;2023-01-19T16:10:13;20.40;43.40
16404;DHT22;8311;50.158;8.642;2023-01-19T16:13:09;20.40;43.40
16404;DHT22;8311;50.158;8.642;2023-01-19T16:16:02;20.30;43.40
16404;DHT22;8311;50.158;8.642;2023-01-19T16:18:57;20.20;43.40
16404;DHT22;8311;50.158;8.642;2023-01-19T16:21:51;20.20;43.40
16404;DHT22;8311;50.158;8.642;2023-01-19T16:24:44;20.20;43.50
16404;DHT22;8311;50.158;8.642;2023-01-19T16:27:36;20.10;43.40
16404;DHT22;8311;50.158;8.642;2023-01-19T16:30:30;20.10;43.40
16404;DHT22;8311;50.158;8.642;2023-01-19T16:33:22;20.00;43.40
16404;DHT22;8311;50.158;8.642;2023-01-19T16:36:19;20.00;43.40
16404;DHT22;8311;50.158;8.642;2023-01-19T16:39:13;20.00;43.50
16404;DHT22;8311;50.158;8.642;2023-01-19T16:42:07;20.00;43.50
16404;DHT22;8311;50.158;8.642;2023-01-19T16:45:01;19.90;43.40
16404;DHT22;8311;50.158;8.642;2023-01-19T16:47:54;19.90;43.50
16404;DHT22;8311;50.158;8.642;2023-01-19T16:50:56;19.90;43.50
16404;DHT22;8311;50.158;8.642;2023-01-19T16:53:51;19.80;43.40
16404;DHT22;8311;50.158;8.642;2023-01-19T16:56:44;19.80;43.40
16404;DHT22;8311;50.158;8.642;2023-01-19T16:59:38;19.80;43.50
16404;DHT22;8311;50.158;8.642;2023-01-19T17:02:31;19.70;43.40
16404;DHT22;8311;50.158;8.642;2023-01-19T17:05:25;19.70;43.50
16404;DHT22;8311;50.158;8.642;2023-01-19T17:08:18;19.70;43.50
16404;DHT22;8311;50.158;8.642;2023-01-19T17:11:15;19.70;43.50
16404;DHT22;8311;50.158;8.642;2023-01-19T17:14:12;19.60;43.40
16404;DHT22;8311;50.158;8.642;2023-01-19T17:17:06;19.60;43.40
16404;DHT22;8311;50.158;8.642;2023-01-19T17:20:00;19.60;43.50
16404;DHT22;8311;50.158;8.642;2023-01-19T17:22:54;19.50;43.40
16404;DHT22;8311;50.158;8.642;2023-01-19T17:25:51;19.50;43.40
16404;DHT22;8311;50.158;8.642;2023-01-19T17:28:46;19.50;43.40
16404;DHT22;8311;50.158;8.642;2023-01-19T17:31:39;19.50;43.40
16404;DHT22;8311;50.158;8.642;2023-01-19T17:34:33;19.50;43.40
16404;DHT22;8311;50.158;8.642;2023-01-19T17:37:26;19.50;43.40
16404;DHT22;8311;50.158;8.642;2023-01-19T17:40:20;19.40;43.40
16404;DHT22;8311;50.158;8.642;2023-01-19T17:43:17;19.40;43.40
16404;DHT22;8311;50.158;8.642;2023-01-19T17:46:11;19.40;43.40
16404;DHT22;8311;50.158;8.642;2023-01-19T17:49:06;19.40;43.40
16404;DHT22;8311;50.158;8.642;2023-01-19T17:52:00;19.40;43.40
16404;DHT22;8311;50.158;8.642;2023-01-19T17:54:53;19.40;43.40
16404;DHT22;8311;50.158;8.642;2023-01-19T17:57:47;19.30;43.40
16404;DHT22;8311;50.158;8.642;2023-01-19T18:00:40;19.30;43.40
16404;DHT22;8311;50.158;8.642;2023-01-19T18:03:34;19.30;43.40
16404;DHT22;8311;50.158;8.642;2023-01-19T18:06:28;19.30;43.40
16404;DHT22;8311;50.158;8.642;2023-01-19T18:09:21;19.30;43.40
16404;DHT22;8311;50.158;8.642;2023-01-19T18:12:13;19.30;43.40
16404;DHT22;8311;50.158;8.642;2023-01-19T18:15:08;19.30;43.40
16404;DHT22;8311;50.158;8.642;2023-01-19T18:18:02;19.20;43.40
16404;DHT22;8311;50.158;8.642;2023-01-19T18:21:02;19.20;43.40
16404;DHT22;8311;50.158;8.642;2023-01-19T18:23:58;19.20;43.40
16404;DHT22;8311;50.158;8.642;2023-01-19T18:26:53;19.20;43.40
16404;DHT22;8311;50.158;8.642;2023-01-19T18:29:47;19.20;43.40
16404;DHT22;8311;50.158;8.642;2023-01-19T18:32:40;19.20;43.40
16404;DHT22;8311;50.158;8.642;2023-01-19T18:35:33;19.20;43.40
16404;DHT22;8311;50.158;8.642;2023-01-19T18:38:28;19.20;43.40
16404;DHT22;8311;50.158;8.642;2023-01-19T18:41:22;19.20;43.50
16404;DHT22;8311;50.158;8.642;2023-01-19T18:44:15;19.20;43.40
16404;DHT22;8311;50.158;8.642;2023-01-19T18:47:07;19.10;43.40
16404;DHT22;8311;50.158;8.642;2023-01-19T18:50:01;19.10;43.30
16404;DHT22;8311;50.158;8.642;2023-01-19T18:52:54;19.10;43.40